createdAt,value
2023-05-25T00:01:01.894Z,18.21
2023-05-25T00:03:32.192Z,18.32
2023-05-25T00:06:00.639Z,18.38
2023-05-25T00:08:28.695Z,18.19
2023-05-25T00:10:56.018Z,18.21
2023-05-25T00:13:23.369Z,18.18
2023-05-25T00:15:50.707Z,18.07
2023-05-25T00:18:18.155Z,17.97
2023-05-25T00:20:45.989Z,17.90
2023-05-25T00:23:13.344Z,17.95
2023-05-25T00:25:41.026Z,17.87
2023-05-25T00:28:08.462Z,17.90
2023-05-25T00:30:35.868Z,17.99
2023-05-25T00:33:03.399Z,17.79
2023-05-25T00:35:30.636Z,17.73
2023-05-25T00:37:57.910Z,17.70
2023-05-25T00:40:25.212Z,17.69
2023-05-25T00:42:53.227Z,17.81
2023-05-25T00:45:20.449Z,17.81
2023-05-25T00:47:51.949Z,17.80
2023-05-25T00:50:29.928Z,17.61
2023-05-25T00:52:57.466Z,17.54
2023-05-25T00:55:26.251Z,17.46
2023-05-25T00:57:55.214Z,17.47
2023-05-25T01:00:23.460Z,17.57
2023-05-25T01:02:52.868Z,17.54
2023-05-25T01:05:21.729Z,17.53
2023-05-25T01:07:50.377Z,17.44
2023-05-25T01:10:22.411Z,17.35
2023-05-25T01:12:53.290Z,17.39
2023-05-25T01:15:20.777Z,17.35
2023-05-25T01:17:49.403Z,17.22
2023-05-25T01:20:17.119Z,17.23
2023-05-25T01:22:50.557Z,17.32
2023-05-25T01:25:25.326Z,17.12
2023-05-25T01:28:04.379Z,17.14
2023-05-25T01:30:32.782Z,17.02
2023-05-25T01:33:00.550Z,17.18
2023-05-25T01:35:28.296Z,17.13
2023-05-25T01:37:55.856Z,16.94
2023-05-25T01:40:23.247Z,16.95
2023-05-25T01:42:50.560Z,16.95
2023-05-25T01:45:17.896Z,16.89
2023-05-25T01:47:57.578Z,16.98
2023-05-25T01:50:30.897Z,17.05
2023-05-25T01:53:06.410Z,16.78
2023-05-25T01:55:39.441Z,16.66
2023-05-25T01:58:08.734Z,16.67
2023-05-25T02:00:37.283Z,16.75
2023-05-25T02:03:04.875Z,16.78
2023-05-25T02:05:32.107Z,16.95
2023-05-25T02:07:59.284Z,16.82
2023-05-25T02:10:26.421Z,17.00
2023-05-25T02:12:53.609Z,17.08
2023-05-25T02:15:21.632Z,16.92
2023-05-25T02:17:49.088Z,16.97
2023-05-25T02:20:16.294Z,16.89
2023-05-25T02:22:43.418Z,16.91
2023-05-25T02:25:10.622Z,16.90
2023-05-25T02:27:37.799Z,16.99
2023-05-25T02:30:05.659Z,17.02
2023-05-25T02:32:33.500Z,16.83
2023-05-25T02:35:00.934Z,16.81
2023-05-25T02:37:28.362Z,16.82
2023-05-25T02:39:55.624Z,16.72
2023-05-25T02:42:22.785Z,16.73
2023-05-25T02:44:50.032Z,16.61
2023-05-25T02:47:18.396Z,16.70
2023-05-25T02:49:45.812Z,16.67
2023-05-25T02:52:13.558Z,16.60
2023-05-25T02:54:40.723Z,16.61
2023-05-25T02:57:08.172Z,16.50
2023-05-25T02:59:35.936Z,16.52
2023-05-25T03:02:03.817Z,16.46
2023-05-25T03:04:31.703Z,16.42
2023-05-25T03:06:59.341Z,16.42
2023-05-25T03:09:26.501Z,16.23
2023-05-25T03:11:53.739Z,16.23
2023-05-25T03:14:21.296Z,16.21
2023-05-25T03:16:48.656Z,16.27
2023-05-25T03:19:16.138Z,16.33
2023-05-25T03:21:43.461Z,16.42
2023-05-25T03:24:10.718Z,16.33
2023-05-25T03:26:38.399Z,16.33
2023-05-25T03:29:05.628Z,16.42
2023-05-25T03:31:33.315Z,16.26
2023-05-25T03:34:00.462Z,17.79
2023-05-25T03:36:27.736Z,18.44
2023-05-25T03:38:54.933Z,18.56
2023-05-25T03:41:22.394Z,18.97
2023-05-25T03:43:49.888Z,18.52
2023-05-25T03:46:17.254Z,19.14
2023-05-25T03:48:45.048Z,18.99
2023-05-25T03:51:12.330Z,18.94
2023-05-25T03:53:39.496Z,18.72
2023-05-25T03:56:07.215Z,19.04
2023-05-25T03:58:34.861Z,19.10
2023-05-25T04:01:04.935Z,19.45
2023-05-25T04:03:33.876Z,19.22
2023-05-25T04:06:02.118Z,19.46
2023-05-25T04:08:30.151Z,19.40
2023-05-25T04:10:58.061Z,19.40
2023-05-25T04:13:25.998Z,19.58
2023-05-25T04:15:54.626Z,19.66
2023-05-25T04:18:26.131Z,18.98
2023-05-25T04:20:54.824Z,19.11
2023-05-25T04:23:23.441Z,19.32
2023-05-25T04:25:51.438Z,19.31
2023-05-25T04:28:18.917Z,19.52
2023-05-25T04:30:46.309Z,19.62
2023-05-25T04:33:13.709Z,19.62
2023-05-25T04:35:41.021Z,19.21
2023-05-25T04:38:08.301Z,19.53
2023-05-25T04:40:35.702Z,18.94
2023-05-25T04:43:03.047Z,18.65
2023-05-25T04:45:30.240Z,19.18
2023-05-25T04:47:57.683Z,19.55
2023-05-25T04:50:25.066Z,19.46
2023-05-25T04:52:52.346Z,19.75
2023-05-25T04:55:19.841Z,19.56
2023-05-25T04:57:47.478Z,19.81
2023-05-25T05:00:15.544Z,19.49
2023-05-25T05:02:42.965Z,19.68
2023-05-25T05:05:16.696Z,19.79
2023-05-25T05:07:46.101Z,19.45
2023-05-25T05:10:14.584Z,19.54
2023-05-25T05:12:41.886Z,19.86
2023-05-25T05:15:09.461Z,19.63
2023-05-25T05:17:36.832Z,19.96
2023-05-25T05:20:04.596Z,20.08
2023-05-25T05:22:33.547Z,20.19
2023-05-25T05:25:00.899Z,19.78
2023-05-25T05:27:28.200Z,19.74
2023-05-25T05:29:55.745Z,19.79
2023-05-25T05:32:23.078Z,20.07
2023-05-25T05:34:50.458Z,20.00
2023-05-25T05:37:17.837Z,20.11
2023-05-25T05:39:45.206Z,20.02
2023-05-25T05:42:12.536Z,20.15
2023-05-25T05:44:40.062Z,20.17
2023-05-25T05:47:07.672Z,20.00
2023-05-25T05:49:35.410Z,19.95
2023-05-25T05:52:02.690Z,20.21
2023-05-25T05:54:30.165Z,20.20
2023-05-25T05:56:57.472Z,20.05
2023-05-25T05:59:24.789Z,19.10
2023-05-25T06:01:51.962Z,18.87
2023-05-25T06:04:19.410Z,18.61
2023-05-25T06:06:46.564Z,18.62
2023-05-25T06:09:13.911Z,18.53
2023-05-25T06:11:41.052Z,18.45
2023-05-25T06:14:08.224Z,18.51
2023-05-25T06:16:36.374Z,18.52
2023-05-25T06:19:03.812Z,18.48
2023-05-25T06:21:31.220Z,18.40
2023-05-25T06:23:58.559Z,18.49
2023-05-25T06:26:25.732Z,18.51
2023-05-25T06:28:53.010Z,18.45
2023-05-25T06:31:20.205Z,18.46
2023-05-25T06:33:47.580Z,18.43
2023-05-25T06:36:15.802Z,18.36
2023-05-25T06:38:43.297Z,18.43
2023-05-25T06:41:10.729Z,18.45
2023-05-25T06:43:38.291Z,18.48
2023-05-25T06:46:05.539Z,18.56
2023-05-25T06:48:32.831Z,18.53
2023-05-25T06:50:59.983Z,18.62
2023-05-25T06:53:27.207Z,18.69
2023-05-25T06:55:54.455Z,18.70
2023-05-25T06:58:22.162Z,18.84
2023-05-25T07:00:49.353Z,19.09
2023-05-25T07:03:17.073Z,19.68
2023-05-25T07:05:44.622Z,20.30
2023-05-25T07:08:11.979Z,20.58
2023-05-25T07:10:39.484Z,20.72
2023-05-25T07:13:06.918Z,21.14
2023-05-25T07:15:34.692Z,21.35
2023-05-25T07:18:02.022Z,21.36
2023-05-25T07:20:29.417Z,21.30
2023-05-25T07:22:56.879Z,21.43
2023-05-25T07:25:24.264Z,21.18
2023-05-25T07:27:51.798Z,21.22
2023-05-25T07:30:20.053Z,21.24
2023-05-25T07:32:47.389Z,21.22
2023-05-25T07:35:15.066Z,21.20
2023-05-25T07:37:42.446Z,21.23
2023-05-25T07:40:10.334Z,21.18
2023-05-25T07:42:37.667Z,21.19
2023-05-25T07:45:06.000Z,21.24
2023-05-25T07:47:33.347Z,21.16
2023-05-25T07:50:00.880Z,21.24
2023-05-25T07:52:28.252Z,21.21
2023-05-25T07:54:55.648Z,21.25
2023-05-25T07:57:23.066Z,21.28
2023-05-25T07:59:50.411Z,21.50
2023-05-25T08:02:17.876Z,21.60
2023-05-25T08:04:45.384Z,21.80
2023-05-25T08:07:12.919Z,21.74
2023-05-25T08:09:40.574Z,21.64
2023-05-25T08:12:30.584Z,21.77
2023-05-25T08:14:55.964Z,21.84
2023-05-25T08:17:23.485Z,21.97
2023-05-25T08:19:50.896Z,21.95
2023-05-25T08:22:18.333Z,21.93
2023-05-25T08:24:45.793Z,21.87
2023-05-25T08:27:13.160Z,21.74
2023-05-25T08:29:40.656Z,21.66
2023-05-25T08:32:08.273Z,21.61
2023-05-25T08:34:35.726Z,21.49
2023-05-25T08:37:03.097Z,21.52
2023-05-25T08:39:33.466Z,21.47
2023-05-25T08:42:02.210Z,21.58
2023-05-25T08:44:30.469Z,21.54
2023-05-25T08:47:04.647Z,21.52
2023-05-25T08:49:37.710Z,21.69
2023-05-25T08:52:10.420Z,21.83
2023-05-25T08:54:38.257Z,21.89
2023-05-25T08:57:33.686Z,22.23
2023-05-25T09:00:06.870Z,22.64
2023-05-25T09:02:54.927Z,22.88
2023-05-25T09:05:24.229Z,23.22
2023-05-25T09:07:52.393Z,23.46
2023-05-25T09:10:20.686Z,23.58
2023-05-25T09:12:48.961Z,23.70
2023-05-25T09:15:17.087Z,24.07
2023-05-25T09:17:44.511Z,24.09
2023-05-25T09:20:12.358Z,24.17
2023-05-25T09:22:41.583Z,24.45
2023-05-25T09:25:11.035Z,24.38
2023-05-25T09:27:38.329Z,24.47
2023-05-25T09:30:06.768Z,24.57
2023-05-25T09:32:34.302Z,24.64
2023-05-25T09:35:13.120Z,24.67
2023-05-25T09:37:42.455Z,24.70
2023-05-25T09:40:11.070Z,24.78
2023-05-25T09:42:38.652Z,24.76
2023-05-25T09:45:06.787Z,24.88
2023-05-25T09:47:36.519Z,24.91
2023-05-25T09:50:04.260Z,24.85
2023-05-25T09:52:31.677Z,24.95
2023-05-25T09:54:59.301Z,25.06
2023-05-25T09:57:46.016Z,25.00
2023-05-25T10:00:32.697Z,25.11
2023-05-25T10:03:19.665Z,25.15
2023-05-25T10:06:06.917Z,25.32
2023-05-25T10:08:58.206Z,25.14
2023-05-25T10:11:45.386Z,25.31
2023-05-25T10:14:17.390Z,25.38
2023-05-25T10:16:48.412Z,25.22
2023-05-25T10:19:20.495Z,25.13
2023-05-25T10:21:58.375Z,25.28
2023-05-25T10:24:25.688Z,25.42
2023-05-25T10:26:55.451Z,25.35
2023-05-25T10:29:24.423Z,25.36
2023-05-25T10:31:53.251Z,25.29
2023-05-25T10:34:22.298Z,25.33
2023-05-25T10:36:54.015Z,25.41
2023-05-25T10:39:21.764Z,25.39
2023-05-25T10:41:50.780Z,25.29
2023-05-25T10:44:20.447Z,25.35
2023-05-25T10:46:48.712Z,25.39
2023-05-25T10:49:34.780Z,25.49
2023-05-25T10:52:02.703Z,25.59
2023-05-25T10:54:31.201Z,25.67
2023-05-25T10:57:12.807Z,25.51
2023-05-25T10:59:43.650Z,25.37
2023-05-25T11:02:12.010Z,25.29
2023-05-25T11:04:39.416Z,25.31
2023-05-25T11:07:08.516Z,24.99
2023-05-25T11:09:41.193Z,25.03
2023-05-25T11:12:08.663Z,25.24
2023-05-25T11:14:36.554Z,25.35
2023-05-25T11:17:15.483Z,25.43
2023-05-25T11:19:54.253Z,25.46
2023-05-25T11:22:22.931Z,25.58
2023-05-25T11:24:54.097Z,25.75
2023-05-25T11:27:47.053Z,25.80
2023-05-25T11:30:18.115Z,25.88
2023-05-25T11:32:51.687Z,25.72
2023-05-25T11:35:19.101Z,25.87
2023-05-25T11:37:50.274Z,25.85
2023-05-25T11:40:17.780Z,25.76
2023-05-25T11:42:47.893Z,25.68
2023-05-25T11:45:15.409Z,25.74
2023-05-25T11:47:43.065Z,25.68
2023-05-25T11:50:17.118Z,25.16
2023-05-25T11:52:44.616Z,24.99
2023-05-25T11:55:13.103Z,24.90
2023-05-25T11:57:41.524Z,24.76
2023-05-25T12:00:12.908Z,24.65
2023-05-25T12:02:41.607Z,24.55
2023-05-25T12:05:11.326Z,24.47
2023-05-25T12:07:45.399Z,24.37
2023-05-25T12:10:15.263Z,24.43
2023-05-25T12:12:47.701Z,24.42
2023-05-25T12:15:19.753Z,24.24
2023-05-25T12:17:48.620Z,24.27
2023-05-25T12:20:17.837Z,24.51
2023-05-25T12:22:46.888Z,24.69
2023-05-25T12:25:18.322Z,24.73
2023-05-25T12:27:45.713Z,24.51
2023-05-25T12:30:13.300Z,24.35
2023-05-25T12:33:02.644Z,24.27
2023-05-25T12:35:44.681Z,24.23
2023-05-25T12:38:13.656Z,24.27
2023-05-25T12:40:44.751Z,24.30
2023-05-25T12:43:14.574Z,24.65
2023-05-25T12:45:43.106Z,25.06
2023-05-25T12:48:10.755Z,25.09
2023-05-25T12:50:38.423Z,24.98
2023-05-25T12:53:06.114Z,25.00
2023-05-25T12:55:36.467Z,25.12
2023-05-25T12:58:06.751Z,25.15
2023-05-25T13:00:37.028Z,24.92
2023-05-25T13:03:06.284Z,24.75
2023-05-25T13:05:35.610Z,24.64
2023-05-25T13:08:04.928Z,24.53
2023-05-25T13:10:33.450Z,24.49
2023-05-25T13:13:07.883Z,24.40
2023-05-25T13:15:45.657Z,24.40
2023-05-25T13:18:20.721Z,24.40
2023-05-25T13:20:51.119Z,24.36
2023-05-25T13:23:20.217Z,24.33
2023-05-25T13:25:47.982Z,24.31
2023-05-25T13:28:15.243Z,24.30
2023-05-25T13:30:42.980Z,24.27
2023-05-25T13:33:10.709Z,24.30
2023-05-25T13:35:38.368Z,24.30
2023-05-25T13:38:08.982Z,24.32
2023-05-25T13:40:36.284Z,24.49
2023-05-25T13:43:03.672Z,24.46
2023-05-25T13:45:30.979Z,24.48
2023-05-25T13:47:58.341Z,24.69
2023-05-25T13:50:25.991Z,24.70
2023-05-25T13:52:53.449Z,24.67
2023-05-25T13:55:20.839Z,24.70
2023-05-25T13:57:48.866Z,24.84
2023-05-25T14:00:16.552Z,24.81
2023-05-25T14:02:44.183Z,25.00
2023-05-25T14:05:11.608Z,24.99
2023-05-25T14:07:39.393Z,25.06
2023-05-25T14:10:09.012Z,24.98
2023-05-25T14:12:37.053Z,24.92
2023-05-25T14:15:05.411Z,24.80
2023-05-25T14:17:32.960Z,24.71
2023-05-25T14:20:00.629Z,24.73
2023-05-25T14:22:28.171Z,24.74
2023-05-25T14:24:55.575Z,24.70
2023-05-25T14:27:22.950Z,24.71
2023-05-25T14:29:51.420Z,24.69
2023-05-25T14:32:19.361Z,24.67
2023-05-25T14:34:47.437Z,24.66
2023-05-25T14:37:14.760Z,24.76
2023-05-25T14:39:42.172Z,24.72
2023-05-25T14:42:10.751Z,24.75
2023-05-25T14:44:38.456Z,24.73
2023-05-25T14:47:08.660Z,24.62
2023-05-25T14:49:36.376Z,24.58
2023-05-25T14:52:04.015Z,24.54
2023-05-25T14:54:34.802Z,24.41
2023-05-25T14:57:02.558Z,24.49
2023-05-25T14:59:30.000Z,24.32
2023-05-25T15:02:00.318Z,24.25
2023-05-25T15:04:27.954Z,24.29
2023-05-25T15:06:55.442Z,24.21
2023-05-25T15:09:22.812Z,24.03
2023-05-25T15:11:50.137Z,23.88
2023-05-25T15:14:17.589Z,23.95
2023-05-25T15:16:48.100Z,23.80
2023-05-25T15:19:18.184Z,23.82
2023-05-25T15:21:45.650Z,23.86
2023-05-25T15:24:13.521Z,23.87
2023-05-25T15:26:40.973Z,23.74
2023-05-25T15:29:08.454Z,23.78
2023-05-25T15:31:36.783Z,23.75
2023-05-25T15:34:04.168Z,23.70
2023-05-25T15:36:31.651Z,23.66
2023-05-25T15:38:58.997Z,23.56
2023-05-25T15:41:26.311Z,23.55
2023-05-25T15:43:55.542Z,23.61
2023-05-25T15:46:22.826Z,23.56
2023-05-25T15:48:50.194Z,23.59
2023-05-25T15:51:17.569Z,23.52
2023-05-25T15:53:46.881Z,23.55
2023-05-25T15:56:14.250Z,23.64
2023-05-25T15:58:41.606Z,23.67
2023-05-25T16:01:10.672Z,23.63
2023-05-25T16:03:39.367Z,23.06
2023-05-25T16:06:07.038Z,23.06
2023-05-25T16:08:34.372Z,23.05
2023-05-25T16:11:01.722Z,23.05
2023-05-25T16:13:29.034Z,23.06
2023-05-25T16:15:56.577Z,23.10
2023-05-25T16:18:23.909Z,23.02
2023-05-25T16:20:51.331Z,23.01
2023-05-25T16:23:18.685Z,23.04
2023-05-25T16:25:46.300Z,22.96
2023-05-25T16:28:13.802Z,23.08
2023-05-25T16:30:41.173Z,23.01
2023-05-25T16:33:08.608Z,22.98
2023-05-25T16:35:36.205Z,22.97
2023-05-25T16:38:04.032Z,22.91
2023-05-25T16:40:33.859Z,22.82
2023-05-25T16:43:01.165Z,22.71
2023-05-25T16:45:28.658Z,22.71
2023-05-25T16:47:56.166Z,22.67
2023-05-25T16:50:23.499Z,22.95
2023-05-25T16:52:50.848Z,23.02
2023-05-25T16:55:18.370Z,22.93
2023-05-25T16:57:45.689Z,23.03
2023-05-25T17:00:13.774Z,22.70
2023-05-25T17:02:41.110Z,22.56
2023-05-25T17:05:08.991Z,22.47
2023-05-25T17:07:36.616Z,22.36
2023-05-25T17:10:04.383Z,22.34
2023-05-25T17:12:31.973Z,22.36
2023-05-25T17:14:59.435Z,22.32
2023-05-25T17:17:28.219Z,22.46
2023-05-25T17:19:55.780Z,22.39
2023-05-25T17:22:23.127Z,22.23
2023-05-25T17:24:51.549Z,22.09
2023-05-25T17:27:18.923Z,22.02
2023-05-25T17:29:46.272Z,22.02
2023-05-25T17:32:13.679Z,22.01
2023-05-25T17:34:41.220Z,21.80
2023-05-25T17:37:08.481Z,21.72
2023-05-25T17:39:36.046Z,21.80
2023-05-25T17:42:03.666Z,21.69
2023-05-25T17:44:31.485Z,21.64
2023-05-25T17:47:00.045Z,21.70
2023-05-25T17:49:27.354Z,21.80
2023-05-25T17:51:54.808Z,21.74
2023-05-25T17:54:22.222Z,21.84
2023-05-25T17:56:49.602Z,21.88
2023-05-25T17:59:16.941Z,21.87
2023-05-25T18:01:44.347Z,21.90
2023-05-25T18:04:12.096Z,21.97
2023-05-25T18:06:39.473Z,21.80
2023-05-25T18:09:06.892Z,21.62
2023-05-25T18:11:34.171Z,21.58
2023-05-25T18:14:01.452Z,21.57
2023-05-25T18:16:28.909Z,21.60
2023-05-25T18:18:56.327Z,21.65
2023-05-25T18:21:23.683Z,21.64
2023-05-25T18:23:51.488Z,21.94
2023-05-25T18:26:18.854Z,22.08
2023-05-25T18:28:46.685Z,22.03
2023-05-25T18:31:14.474Z,21.91
2023-05-25T18:33:41.836Z,21.68
2023-05-25T18:36:09.221Z,21.74
2023-05-25T18:38:37.860Z,21.80
2023-05-25T18:41:05.200Z,21.61
2023-05-25T18:43:32.584Z,21.66
2023-05-25T18:46:00.049Z,21.63
2023-05-25T18:48:27.628Z,21.80
2023-05-25T18:50:54.994Z,21.84
2023-05-25T18:53:22.444Z,21.78
2023-05-25T18:55:49.810Z,21.71
2023-05-25T18:58:17.194Z,21.70
2023-05-25T19:00:45.532Z,21.66
2023-05-25T19:03:13.850Z,21.66
2023-05-25T19:05:41.468Z,21.78
2023-05-25T19:08:08.835Z,21.82
2023-05-25T19:10:36.459Z,21.78
2023-05-25T19:13:03.790Z,21.78
2023-05-25T19:15:31.132Z,21.82
2023-05-25T19:17:58.521Z,21.95
2023-05-25T19:20:26.565Z,21.80
2023-05-25T19:22:53.882Z,21.65
2023-05-25T19:25:21.482Z,21.56
2023-05-25T19:27:49.377Z,21.38
2023-05-25T19:30:16.936Z,21.15
2023-05-25T19:32:44.441Z,21.02
2023-05-25T19:35:11.922Z,21.00
2023-05-25T19:37:39.202Z,20.97
2023-05-25T19:40:07.275Z,21.19
2023-05-25T19:42:35.180Z,21.21
2023-05-25T19:45:02.715Z,21.35
2023-05-25T19:47:30.249Z,21.04
2023-05-25T19:49:58.534Z,20.80
2023-05-25T19:52:26.040Z,20.72
2023-05-25T19:54:53.390Z,20.61
2023-05-25T19:57:21.014Z,20.65
2023-05-25T19:59:48.848Z,20.76
2023-05-25T20:02:16.174Z,20.63
2023-05-25T20:04:43.536Z,20.57
2023-05-25T20:07:10.883Z,20.55
2023-05-25T20:09:38.965Z,20.50
2023-05-25T20:12:06.756Z,20.46
2023-05-25T20:14:34.494Z,20.44
2023-05-25T20:17:03.507Z,20.31
2023-05-25T20:19:31.090Z,20.23
2023-05-25T20:21:58.643Z,20.18
2023-05-25T20:24:26.083Z,20.16
2023-05-25T20:26:53.696Z,20.22
2023-05-25T20:29:20.850Z,20.26
2023-05-25T20:31:48.113Z,20.21
2023-05-25T20:34:15.671Z,20.16
2023-05-25T20:36:43.156Z,20.22
2023-05-25T20:39:10.474Z,20.28
2023-05-25T20:41:37.837Z,20.12
2023-05-25T20:44:05.101Z,20.20
2023-05-25T20:46:33.029Z,20.11
2023-05-25T20:49:00.886Z,20.02
2023-05-25T20:51:28.012Z,20.10
2023-05-25T20:53:55.208Z,20.11
2023-05-25T20:56:22.596Z,20.13
2023-05-25T20:58:49.877Z,19.99
2023-05-25T21:01:17.296Z,20.00
2023-05-25T21:03:44.766Z,20.02
2023-05-25T21:06:12.453Z,19.99
2023-05-25T21:08:40.018Z,19.87
2023-05-25T21:11:07.358Z,19.95
2023-05-25T21:13:34.700Z,19.96
2023-05-25T21:16:02.051Z,19.84
2023-05-25T21:18:29.406Z,19.83
2023-05-25T21:20:56.797Z,19.81
2023-05-25T21:23:24.240Z,19.81
2023-05-25T21:25:51.595Z,19.72
2023-05-25T21:28:18.889Z,19.83
2023-05-25T21:30:46.419Z,19.74
2023-05-25T21:33:13.765Z,19.73
2023-05-25T21:35:41.612Z,19.72
2023-05-25T21:38:08.951Z,19.63
2023-05-25T21:40:36.282Z,19.64
2023-05-25T21:43:04.081Z,19.58
2023-05-25T21:45:31.380Z,19.64
2023-05-25T21:47:58.724Z,19.65
2023-05-25T21:50:26.931Z,19.59
2023-05-25T21:52:54.223Z,19.51
2023-05-25T21:55:21.603Z,19.62
2023-05-25T21:57:48.984Z,19.61
2023-05-25T22:00:17.014Z,19.57
2023-05-25T22:02:44.547Z,19.54
2023-05-25T22:05:11.938Z,19.61
2023-05-25T22:07:39.301Z,19.54
2023-05-25T22:10:07.374Z,19.43
2023-05-25T22:12:34.648Z,19.43
2023-05-25T22:15:01.970Z,19.43
2023-05-25T22:17:29.260Z,19.36
2023-05-25T22:20:07.345Z,19.44
2023-05-25T22:22:35.562Z,19.45
2023-05-25T22:25:04.157Z,19.39
2023-05-25T22:27:32.518Z,19.36
2023-05-25T22:29:59.885Z,19.30
2023-05-25T22:32:29.440Z,19.31
2023-05-25T22:34:56.841Z,19.24
2023-05-25T22:37:24.345Z,19.21
2023-05-25T22:39:51.735Z,19.17
2023-05-25T22:42:19.023Z,19.14
2023-05-25T22:44:46.355Z,19.00
2023-05-25T22:47:14.096Z,19.02
2023-05-25T22:49:43.286Z,18.81
2023-05-25T22:52:12.269Z,18.88
2023-05-25T22:54:39.953Z,18.87
2023-05-25T22:57:09.374Z,18.69
2023-05-25T22:59:36.906Z,18.76
2023-05-25T23:02:04.945Z,18.76
2023-05-25T23:04:35.063Z,18.64
2023-05-25T23:07:02.976Z,18.63
2023-05-25T23:09:30.310Z,18.72
2023-05-25T23:11:57.656Z,18.70
2023-05-25T23:14:25.077Z,18.65
2023-05-25T23:16:52.420Z,18.60
2023-05-25T23:19:19.848Z,18.51
2023-05-25T23:21:47.320Z,18.55
2023-05-25T23:24:15.137Z,18.51
2023-05-25T23:26:42.344Z,18.50
2023-05-25T23:29:09.745Z,18.49
2023-05-25T23:31:37.188Z,18.45
2023-05-25T23:34:04.395Z,18.41
2023-05-25T23:36:31.486Z,18.42
2023-05-25T23:38:58.652Z,18.35
2023-05-25T23:41:27.045Z,18.30
2023-05-25T23:43:54.293Z,18.27
2023-05-25T23:46:21.612Z,18.29
2023-05-25T23:48:48.913Z,18.27
2023-05-25T23:51:16.541Z,18.14
2023-05-25T23:53:43.652Z,18.08
2023-05-25T23:56:10.788Z,18.12
2023-05-25T23:58:38.006Z,18.10
